Time;durP1;ratioP1;P1;durP2;ratioP2;P2;SDS_P1;SDS_P2;PMS_P1;PMS_P2;Temp;Humidity;BMP_temperature;BMP_pressure;BME280_temperature;BME280_humidity;BME280_pressure;Samples;Min_cycle;Max_cycle;Signal;HPM_P1;HPM_P2
2021/08/28 00:02:14;;;;;;;33.40;10.13;;;;;;;9.31;77.62;98627.45;2169702;81;21004;-68
2021/08/28 00:05:15;;;;;;;26.95;8.25;;;;;;;9.31;77.67;98624.84;2169718;81;20945;-67
2021/08/28 00:08:17;;;;;;;22.95;7.67;;;;;;;9.36;77.44;98628.87;2169448;82;20990;-67
2021/08/28 00:11:18;;;;;;;23.38;7.00;;;;;;;9.33;77.04;98622.52;2169601;82;20973;-67
2021/08/28 00:14:20;;;;;;;25.95;6.87;;;;;;;9.27;77.23;98632.05;2169412;82;21048;-67
2021/08/28 00:17:22;;;;;;;20.92;6.45;;;;;;;9.24;77.10;98637.91;2169246;82;21024;-67
2021/08/28 00:20:23;;;;;;;19.77;6.05;;;;;;;9.23;77.34;98643.63;2169449;82;21024;-67
2021/08/28 00:23:26;;;;;;;22.20;6.40;;;;;;;9.13;77.32;98645.09;2169429;81;20945;-67
2021/08/28 00:26:28;;;;;;;17.62;5.03;;;;;;;9.07;77.75;98644.15;2169385;82;20980;-67
2021/08/28 00:29:29;;;;;;;33.13;6.87;;;;;;;9.15;77.95;98641.91;2169615;81;20969;-68
2021/08/28 00:32:31;;;;;;;26.97;7.67;;;;;;;9.15;77.08;98642.77;2169408;82;21004;-67
2021/08/28 00:35:32;;;;;;;37.53;10.53;;;;;;;9.03;77.09;98651.31;2169515;82;21012;-67
2021/08/28 00:38:33;;;;;;;41.50;13.10;;;;;;;8.92;77.20;98640.62;2169445;82;21035;-67
2021/08/28 00:41:35;;;;;;;62.53;16.45;;;;;;;8.82;77.17;98639.84;2169459;82;21474;-66
2021/08/28 00:44:36;;;;;;;42.88;11.80;;;;;;;8.78;77.51;98638.81;2169437;82;20961;-67
2021/08/28 00:47:39;;;;;;;45.78;12.60;;;;;;;8.72;77.66;98643.92;2169251;81;21579;-67
2021/08/28 00:50:40;;;;;;;38.08;9.80;;;;;;;8.64;77.68;98638.27;2169565;82;20988;-67
2021/08/28 00:53:41;;;;;;;78.72;19.67;;;;;;;8.57;77.80;98640.84;2169348;82;21012;-68
2021/08/28 00:56:43;;;;;;;49.15;13.72;;;;;;;8.51;77.75;98642.50;2169155;82;20988;-67
2021/08/28 00:59:45;;;;;;;34.40;10.40;;;;;;;8.40;78.00;98648.28;2169512;82;21053;-67
2021/08/28 01:02:47;;;;;;;35.80;10.90;;;;;;;8.47;78.16;98641.34;2169803;82;20989;-67
2021/08/28 01:05:49;;;;;;;27.40;8.00;;;;;;;8.52;77.84;98642.86;2169503;82;20962;-67
2021/08/28 01:08:50;;;;;;;20.55;6.65;;;;;;;8.51;77.89;98643.81;2169631;82;21012;-66
2021/08/28 01:11:52;;;;;;;19.45;5.72;;;;;;;8.49;78.04;98645.17;2169377;82;21021;-67
2021/08/28 01:14:53;;;;;;;24.35;7.53;;;;;;;8.45;77.85;98649.74;2169461;82;21008;-67
2021/08/28 01:17:55;;;;;;;28.57;9.40;;;;;;;8.44;78.04;98647.19;2169349;82;20989;-67
2021/08/28 01:20:56;;;;;;;25.15;7.97;;;;;;;8.42;78.28;98647.72;2169305;82;21563;-67
2021/08/28 01:23:58;;;;;;;26.37;7.17;;;;;;;8.47;77.98;98646.56;2169519;82;21027;-67
2021/08/28 01:27:00;;;;;;;23.35;6.30;;;;;;;8.39;77.84;98647.45;2169765;82;20945;-67
2021/08/28 01:30:01;;;;;;;24.37;7.92;;;;;;;8.30;78.30;98657.08;2169619;82;20957;-68
2021/08/28 01:33:03;;;;;;;23.35;7.40;;;;;;;8.42;78.46;98654.25;2169639;82;21522;-67
2021/08/28 01:36:04;;;;;;;25.17;7.10;;;;;;;8.47;78.33;98652.27;2169340;82;20972;-68
2021/08/28 01:39:06;;;;;;;24.32;7.05;;;;;;;8.55;78.23;98648.78;2169361;82;21543;-67
2021/08/28 01:42:07;;;;;;;23.47;6.80;;;;;;;8.55;77.82;98657.06;2169581;82;20984;-67
2021/08/28 01:45:11;;;;;;;24.82;7.50;;;;;;;8.48;77.68;98661.81;2169344;82;21012;-67
2021/08/28 01:48:12;;;;;;;21.77;6.37;;;;;;;8.37;77.63;98661.52;2150660;82;21475;-66
2021/08/28 01:51:13;;;;;;;23.25;6.65;;;;;;;8.21;77.70;98662.34;2169566;82;21091;-67
2021/08/28 01:54:15;;;;;;;21.65;6.78;;;;;;;8.02;78.12;98659.05;2169512;82;21048;-68
2021/08/28 01:57:16;;;;;;;22.37;7.10;;;;;;;7.90;78.20;98664.43;2169729;82;21028;-67
2021/08/28 02:00:17;;;;;;;20.75;6.97;;;;;;;7.90;78.81;98665.73;2169571;82;20989;-67
2021/08/28 02:03:20;;;;;;;24.35;7.28;;;;;;;7.94;78.57;98669.44;2169379;82;21539;-67
2021/08/28 02:06:21;;;;;;;22.80;7.12;;;;;;;7.94;78.41;98669.88;2169268;82;20984;-66
2021/08/28 02:09:23;;;;;;;20.72;7.00;;;;;;;7.92;78.55;98667.35;2169461;82;21020;-67
2021/08/28 02:12:24;;;;;;;21.27;6.92;;;;;;;7.91;78.47;98672.18;2169865;82;20973;-66
2021/08/28 02:15:26;;;;;;;23.35;6.85;;;;;;;7.91;78.65;98671.34;2169436;82;21052;-67
2021/08/28 02:18:28;;;;;;;23.02;8.18;;;;;;;7.94;78.34;98666.82;2169522;82;21059;-67
2021/08/28 02:21:29;;;;;;;21.07;6.40;;;;;;;7.93;78.17;98667.73;2169019;82;20997;-67
2021/08/28 02:24:31;;;;;;;25.17;6.17;;;;;;;7.94;78.44;98665.96;2169309;82;21491;-67
2021/08/28 02:27:32;;;;;;;19.27;7.15;;;;;;;8.06;78.40;98659.23;2169334;82;21080;-67
2021/08/28 02:30:33;;;;;;;20.40;7.15;;;;;;;8.05;78.45;98658.41;2169316;82;21522;-66
2021/08/28 02:33:35;;;;;;;23.32;8.03;;;;;;;8.05;78.10;98662.80;2169517;82;20965;-67
2021/08/28 02:36:38;;;;;;;20.77;5.55;;;;;;;7.97;78.64;98666.66;2169332;82;21005;-67
2021/08/28 02:39:39;;;;;;;18.98;5.08;;;;;;;8.01;78.69;98664.71;2169480;82;21511;-67
2021/08/28 02:42:41;;;;;;;16.85;4.78;;;;;;;8.06;78.19;98664.46;2169765;82;20988;-68
2021/08/28 02:45:43;;;;;;;18.48;5.22;;;;;;;7.94;77.96;98669.44;2169654;82;21542;-67
2021/08/28 02:48:44;;;;;;;21.33;6.15;;;;;;;7.84;78.24;98667.37;2169525;81;20981;-67
2021/08/28 02:51:46;;;;;;;20.30;6.40;;;;;;;7.83;78.68;98664.38;2169481;82;21020;-67
2021/08/28 02:54:47;;;;;;;20.62;5.95;;;;;;;7.85;79.01;98665.16;2169905;82;20977;-67
2021/08/28 02:57:48;;;;;;;17.80;5.65;;;;;;;7.86;79.05;98670.30;2169548;82;20996;-67
2021/08/28 03:00:50;;;;;;;17.45;4.90;;;;;;;7.94;79.47;98666.82;2169694;82;20969;-67
2021/08/28 03:03:51;;;;;;;16.45;4.60;;;;;;;7.95;78.76;98663.73;2169472;82;20980;-67
2021/08/28 03:06:53;;;;;;;17.82;4.97;;;;;;;7.74;78.51;98659.17;2169321;82;21602;-67
2021/08/28 03:09:54;;;;;;;17.55;5.10;;;;;;;7.68;78.64;98668.16;2169647;82;21024;-67
2021/08/28 03:12:56;;;;;;;16.62;4.80;;;;;;;7.69;78.58;98663.80;2169127;82;21012;-67
2021/08/28 03:15:57;;;;;;;20.95;6.92;;;;;;;7.69;78.86;98670.33;2169397;82;21082;-67
2021/08/28 03:18:59;;;;;;;20.80;7.12;;;;;;;7.71;79.22;98673.69;2169487;82;20972;-67
2021/08/28 03:22:00;;;;;;;23.40;7.72;;;;;;;7.72;78.98;98673.61;2153673;82;21535;-67
2021/08/28 03:25:01;;;;;;;28.05;10.20;;;;;;;7.80;79.19;98674.06;2151988;83;21062;-66
2021/08/28 03:28:03;;;;;;;33.83;13.45;;;;;;;7.83;79.26;98677.42;2151933;82;21041;-67
2021/08/28 03:31:04;;;;;;;34.33;14.15;;;;;;;7.82;79.50;98684.43;2152042;82;21065;-67
2021/08/28 03:34:06;;;;;;;45.98;16.77;;;;;;;7.92;79.70;98689.55;2151871;83;20989;-66
2021/08/28 03:37:07;;;;;;;47.85;19.62;;;;;;;8.02;79.53;98683.86;2151918;83;21041;-67
2021/08/28 03:40:09;;;;;;;57.20;24.32;;;;;;;8.01;79.39;98690.00;2152043;82;21004;-67
2021/08/28 03:43:11;;;;;;;41.35;15.18;;;;;;;8.03;79.15;98688.13;2152081;82;21032;-66
2021/08/28 03:46:12;;;;;;;36.35;13.32;;;;;;;8.01;78.91;98685.61;2151931;83;20958;-67
2021/08/28 03:49:13;;;;;;;31.48;11.48;;;;;;;7.95;78.87;98692.47;2151924;83;21547;-67
2021/08/28 03:52:15;;;;;;;31.62;11.90;;;;;;;7.89;78.82;98686.27;2151633;82;20966;-67
2021/08/28 03:55:16;;;;;;;34.95;12.95;;;;;;;7.85;78.87;98685.57;2151863;83;20966;-66
2021/08/28 03:58:18;;;;;;;38.20;14.53;;;;;;;7.84;78.82;98682.56;2152027;83;21029;-66
2021/08/28 04:01:20;;;;;;;30.52;11.68;;;;;;;7.75;78.72;98680.45;2151905;83;20996;-67
2021/08/28 04:04:22;;;;;;;33.95;11.20;;;;;;;7.78;78.89;98689.42;2152114;83;21065;-66
2021/08/28 04:07:23;;;;;;;28.20;10.58;;;;;;;7.83;78.33;98686.56;2152081;82;21127;-66
2021/08/28 04:10:25;;;;;;;21.82;7.28;;;;;;;7.74;78.32;98682.67;2151797;83;20992;-66
2021/08/28 04:13:27;;;;;;;30.30;9.33;;;;;;;7.72;78.73;98690.58;2151959;82;20989;-66
2021/08/28 04:16:28;;;;;;;26.05;8.03;;;;;;;7.82;78.87;98682.29;2151837;83;21583;-66
2021/08/28 04:19:29;;;;;;;24.40;8.23;;;;;;;7.79;78.55;98688.03;2151871;83;21014;-67
2021/08/28 04:22:31;;;;;;;25.55;7.90;;;;;;;7.76;78.54;98686.06;2168722;82;21500;-67
2021/08/28 04:25:32;;;;;;;20.55;6.78;;;;;;;7.73;78.68;98690.11;2169583;81;20929;-67
2021/08/28 04:28:34;;;;;;;19.02;5.78;;;;;;;7.72;78.65;98689.75;2169592;81;21004;-67
2021/08/28 04:31:35;;;;;;;17.42;5.33;;;;;;;7.57;78.16;98696.14;2169536;82;21008;-66
2021/08/28 04:34:36;;;;;;;18.73;6.20;;;;;;;7.51;78.28;98700.34;2169173;82;21020;-66
2021/08/28 04:37:38;;;;;;;22.37;7.78;;;;;;;7.45;78.57;98705.41;2169537;82;21393;-67
2021/08/28 04:40:39;;;;;;;24.47;8.23;;;;;;;7.44;78.99;98705.05;2169736;82;21011;-66
2021/08/28 04:43:41;;;;;;;22.55;7.75;;;;;;;7.51;79.20;98699.51;2169395;82;21515;-67
2021/08/28 04:46:42;;;;;;;28.55;8.33;;;;;;;7.65;79.42;98712.70;2169424;82;21017;-67
2021/08/28 04:49:44;;;;;;;23.98;8.35;;;;;;;7.80;79.52;98700.17;2169255;82;21024;-66
2021/08/28 04:52:45;;;;;;;25.02;8.35;;;;;;;7.97;79.58;98702.36;2169487;82;20969;-67
2021/08/28 04:55:47;;;;;;;23.57;8.40;;;;;;;8.28;79.53;98704.20;2169371;82;20973;-67
2021/08/28 04:58:48;;;;;;;24.95;9.58;;;;;;;8.63;79.24;98711.09;2169420;82;20997;-67
2021/08/28 05:01:50;;;;;;;25.80;8.65;;;;;;;9.05;79.09;98708.34;2169354;82;20965;-67
2021/08/28 05:04:51;;;;;;;24.35;8.90;;;;;;;9.50;78.86;98709.70;2169381;82;21484;-66
2021/08/28 05:07:52;;;;;;;24.00;8.68;;;;;;;9.70;77.97;98705.44;2169396;82;21038;-66
2021/08/28 05:10:54;;;;;;;22.02;7.90;;;;;;;9.86;77.38;98712.39;2169384;82;21031;-67
2021/08/28 05:13:55;;;;;;;26.33;8.88;;;;;;;10.03;77.41;98717.92;2169436;82;21001;-67
2021/08/28 05:16:57;;;;;;;21.85;8.88;;;;;;;10.22;77.54;98714.54;2169396;82;20993;-66
2021/08/28 05:19:58;;;;;;;24.27;8.80;;;;;;;10.49;77.50;98713.81;2168728;82;21507;-68
2021/08/28 05:23:00;;;;;;;26.17;11.57;;;;;;;10.66;77.52;98708.83;2149498;82;20938;-67
2021/08/28 05:26:01;;;;;;;28.92;9.80;;;;;;;10.77;77.48;98707.30;2149488;83;21508;-67
2021/08/28 05:29:03;;;;;;;25.52;10.10;;;;;;;10.86;77.81;98704.94;2149421;82;21108;-67
2021/08/28 05:32:04;;;;;;;28.92;10.90;;;;;;;11.12;77.93;98702.86;2149220;82;21032;-67
2021/08/28 05:35:06;;;;;;;29.45;11.63;;;;;;;11.41;77.65;98708.36;2149338;82;21038;-67
2021/08/28 05:38:07;;;;;;;27.58;12.53;;;;;;;11.73;77.65;98709.78;2149236;82;21020;-67
2021/08/28 05:41:08;;;;;;;34.05;13.32;;;;;;;12.07;77.36;98707.03;2149234;82;21458;-67
2021/08/28 05:44:10;;;;;;;31.55;14.33;;;;;;;12.40;77.01;98710.06;2149243;82;20969;-67
2021/08/28 05:47:11;;;;;;;30.77;14.33;;;;;;;12.65;76.45;98709.14;2149479;83;21551;-67
2021/08/28 05:50:13;;;;;;;32.13;14.55;;;;;;;12.88;76.29;98709.29;2149378;83;20993;-67
2021/08/28 05:53:14;;;;;;;33.15;14.80;;;;;;;13.00;75.62;98711.88;2149430;83;21016;-67
2021/08/28 05:56:16;;;;;;;34.23;15.00;;;;;;;13.06;76.04;98705.33;2149314;82;21009;-67
2021/08/28 05:59:17;;;;;;;32.13;15.60;;;;;;;13.26;75.51;98710.44;2149501;82;20938;-67
2021/08/28 06:02:18;;;;;;;32.53;16.40;;;;;;;13.16;75.50;98710.27;2149474;82;20934;-67
2021/08/28 06:05:20;;;;;;;32.03;15.75;;;;;;;13.20;76.64;98707.41;2149264;82;21025;-67
2021/08/28 06:08:22;;;;;;;32.40;15.97;;;;;;;13.33;76.39;98709.03;2149477;82;21516;-67
2021/08/28 06:11:25;;;;;;;31.50;14.60;;;;;;;13.43;76.65;98711.86;2149451;83;21127;-67
2021/08/28 06:14:27;;;;;;;29.18;13.53;;;;;;;13.48;75.91;98718.09;2149259;83;21042;-67
2021/08/28 06:17:28;;;;;;;27.50;13.15;;;;;;;13.49;76.07;98715.83;2149573;82;21025;-67
2021/08/28 06:20:30;;;;;;;26.93;12.23;;;;;;;13.41;75.85;98715.55;2149497;82;21120;-68
2021/08/28 06:23:31;;;;;;;25.55;12.50;;;;;;;13.34;76.43;98714.67;2149212;83;21496;-67
2021/08/28 06:26:33;;;;;;;27.70;11.73;;;;;;;13.51;77.05;98717.38;2149578;83;21313;-68
2021/08/28 06:29:34;;;;;;;27.10;12.03;;;;;;;13.68;76.33;98715.28;2149274;82;21520;-67
2021/08/28 06:32:36;;;;;;;23.13;8.83;;;;;;;13.87;76.71;98713.39;2149438;82;21028;-67
2021/08/28 06:35:37;;;;;;;21.90;9.23;;;;;;;14.06;75.15;98713.30;2149428;83;20942;-67
2021/08/28 06:38:39;;;;;;;25.40;9.73;;;;;;;14.18;75.96;98718.96;2149102;82;21083;-67
2021/08/28 06:41:40;;;;;;;23.23;8.23;;;;;;;14.30;76.00;98717.16;2149457;82;21077;-67
2021/08/28 06:44:42;;;;;;;27.47;9.80;;;;;;;14.35;73.99;98717.16;2149545;82;20977;-67
2021/08/28 06:47:43;;;;;;;25.43;9.53;;;;;;;14.32;74.78;98717.41;2149345;82;20993;-67
2021/08/28 06:50:44;;;;;;;24.57;9.13;;;;;;;14.42;74.25;98716.67;2149232;82;20982;-67
2021/08/28 06:53:49;;;;;;;22.43;8.70;;;;;;;14.45;73.86;98712.00;2149509;82;21006;-67
2021/08/28 06:56:49;;;;;;;21.20;8.08;;;;;;;14.51;74.33;98711.97;2129392;83;20977;-67
2021/08/28 06:59:51;;;;;;;22.50;8.53;;;;;;;14.71;74.63;98715.23;2149556;82;21052;-67
2021/08/28 07:02:52;;;;;;;20.33;7.43;;;;;;;14.99;74.04;98714.81;2149515;83;21283;-67
2021/08/28 07:05:54;;;;;;;19.57;6.25;;;;;;;15.26;74.39;98705.13;2149496;82;21009;-67
2021/08/28 07:08:55;;;;;;;21.07;7.80;;;;;;;15.53;71.90;98706.42;2149560;82;21523;-67
2021/08/28 07:11:57;;;;;;;18.80;6.40;;;;;;;15.71;73.61;98702.23;2149369;82;20967;-67
2021/08/28 07:14:58;;;;;;;21.50;7.03;;;;;;;15.96;71.67;98706.83;2149524;82;20994;-67
2021/08/28 07:17:59;;;;;;;18.93;6.17;;;;;;;16.03;70.83;98703.16;2149627;83;21226;-67
2021/08/28 07:21:01;;;;;;;17.37;5.72;;;;;;;16.06;71.31;98709.50;2153503;82;21020;-67
2021/08/28 07:24:02;;;;;;;19.57;6.83;;;;;;;16.13;70.53;98709.33;2169684;82;21451;-67
2021/08/28 07:27:04;;;;;;;16.82;5.25;;;;;;;16.41;71.12;98706.95;2169716;81;21075;-67
2021/08/28 07:30:05;;;;;;;16.27;4.80;;;;;;;16.58;69.64;98708.13;2169864;82;20993;-67
2021/08/28 07:33:07;;;;;;;15.67;4.63;;;;;;;16.77;69.36;98708.17;2169543;82;21393;-67
2021/08/28 07:36:08;;;;;;;16.73;4.75;;;;;;;16.86;67.23;98710.98;2169704;82;20997;-68
2021/08/28 07:39:10;;;;;;;14.23;3.90;;;;;;;16.99;68.29;98704.13;2169633;82;21563;-67
2021/08/28 07:42:11;;;;;;;17.17;4.40;;;;;;;17.19;67.88;98703.67;2169626;82;20989;-67
2021/08/28 07:45:14;;;;;;;13.32;3.85;;;;;;;17.30;65.73;98700.38;2169489;82;21542;-69
2021/08/28 07:48:15;;;;;;;12.93;4.20;;;;;;;17.18;66.08;98704.63;2169496;82;20945;-69
2021/08/28 07:51:17;;;;;;;13.95;3.55;;;;;;;17.36;66.35;98706.12;2169634;82;20957;-69
2021/08/28 07:54:18;;;;;;;12.47;3.15;;;;;;;17.44;65.16;98706.23;2169540;82;21001;-69
2021/08/28 07:57:20;;;;;;;11.38;3.42;;;;;;;17.61;65.28;98705.55;2169575;82;21551;-68
2021/08/28 08:00:21;;;;;;;12.63;3.52;;;;;;;17.86;65.65;98711.22;2169770;82;21012;-69
2021/08/28 08:03:23;;;;;;;15.08;4.58;;;;;;;18.11;65.95;98705.80;2169549;82;20976;-68
2021/08/28 08:06:24;;;;;;;15.23;4.45;;;;;;;18.26;64.07;98708.83;2169695;82;20953;-70
2021/08/28 08:09:26;;;;;;;;;;;;;;;18.42;65.20;98704.70;2172038;82;21061;-70
2021/08/28 08:12:27;;;;;;;12.40;3.98;;;;;;;18.84;65.33;98702.88;2169439;81;20091;-70
2021/08/28 08:15:29;;;;;;;11.43;3.40;;;;;;;19.19;64.59;98695.95;2169533;82;20977;-69
2021/08/28 08:18:30;;;;;;;9.75;2.98;;;;;;;19.42;63.35;98691.50;2169745;82;20981;-68
2021/08/28 08:21:32;;;;;;;11.53;3.50;;;;;;;19.53;60.97;98700.06;2169526;81;21005;-69
2021/08/28 08:24:33;;;;;;;9.60;3.27;;;;;;;19.38;59.70;98704.28;2169204;82;21495;-71
2021/08/28 08:27:35;;;;;;;8.00;2.65;;;;;;;19.31;62.35;98696.06;2169563;82;20989;-71
2021/08/28 08:30:36;;;;;;;5.47;2.47;;;;;;;19.63;60.66;98693.84;2169591;82;20981;-70
2021/08/28 08:33:38;;;;;;;9.88;2.60;;;;;;;19.88;61.26;98685.55;2169605;82;21001;-69
2021/08/28 08:36:40;;;;;;;7.00;2.52;;;;;;;19.62;57.96;98688.16;2169469;82;21467;-73
2021/08/28 08:39:41;;;;;;;8.93;2.40;;;;;;;19.39;58.42;98694.81;2169596;82;20996;-74
2021/08/28 08:42:42;;;;;;;4.05;1.92;;;;;;;19.41;57.49;98696.47;2169508;82;20965;-71
2021/08/28 08:45:44;;;;;;;6.95;1.72;;;;;;;19.56;53.76;98698.92;2169690;82;21001;-68
2021/08/28 08:48:45;;;;;;;5.37;2.10;;;;;;;19.26;53.52;98701.50;2168993;82;21035;-68
2021/08/28 08:51:47;;;;;;;6.00;2.33;;;;;;;19.13;55.25;98709.85;2167454;82;21546;-68
2021/08/28 08:54:49;;;;;;;5.80;2.05;;;;;;;19.43;56.76;98704.64;2167839;82;21067;-68
2021/08/28 08:57:50;;;;;;;4.10;1.98;;;;;;;19.53;55.84;98701.91;2167482;82;20988;-68
2021/08/28 09:00:52;;;;;;;4.03;1.60;;;;;;;19.91;54.20;98709.18;2167970;82;20980;-68
2021/08/28 09:03:54;;;;;;;5.03;1.87;;;;;;;19.95;53.22;98711.88;2168176;82;21526;-68
2021/08/28 09:06:56;;;;;;;3.58;1.70;;;;;;;19.88;53.69;98717.00;2169350;82;20985;-73
2021/08/28 09:09:57;;;;;;;3.83;2.10;;;;;;;20.00;54.85;98713.58;2169567;82;20985;-73
2021/08/28 09:12:59;;;;;;;6.55;2.27;;;;;;;20.47;55.26;98710.16;2169458;82;20989;-72
2021/08/28 09:16:02;;;;;;;6.80;2.40;;;;;;;20.85;54.27;98714.16;2169221;82;21558;-68
2021/08/28 09:19:04;;;;;;;6.87;2.55;;;;;;;20.79;53.51;98710.83;2169409;82;21004;-69
2021/08/28 09:22:05;;;;;;;5.58;2.15;;;;;;;20.54;52.61;98710.71;2169466;82;21025;-69
2021/08/28 09:25:07;;;;;;;5.30;2.20;;;;;;;20.83;55.19;98698.84;2169379;82;20957;-70
2021/08/28 09:28:09;;;;;;;;;;;;;;;21.08;51.78;98706.37;2171971;82;21068;-73
2021/08/28 09:31:10;;;;;;;5.70;2.10;;;;;;;21.18;50.94;98699.56;2169663;82;20150;-69
2021/08/28 09:34:12;;;;;;;5.58;2.22;;;;;;;20.99;50.86;98704.71;2169594;82;21005;-74
2021/08/28 09:37:13;;;;;;;5.78;2.22;;;;;;;21.08;50.80;98706.89;2169191;82;21028;-69
2021/08/28 09:40:15;;;;;;;6.22;2.40;;;;;;;20.82;51.76;98703.83;2169533;81;20945;-74
2021/08/28 09:43:16;;;;;;;3.47;1.70;;;;;;;20.08;51.89;98714.97;2169518;82;20997;-73
2021/08/28 09:46:17;;;;;;;4.08;1.95;;;;;;;19.63;52.20;98711.13;2169492;82;21475;-68
2021/08/28 09:49:19;;;;;;;5.25;2.10;;;;;;;20.20;51.66;98702.69;2169495;82;20980;-69
2021/08/28 09:52:20;;;;;;;4.55;1.72;;;;;;;20.97;53.46;98700.53;2169477;82;20945;-74
2021/08/28 09:55:22;;;;;;;4.03;1.70;;;;;;;21.05;50.31;98709.38;2169505;81;20981;-73
2021/08/28 09:58:23;;;;;;;3.83;1.70;;;;;;;20.38;50.70;98700.79;2169515;82;21008;-68
2021/08/28 10:01:25;;;;;;;3.17;1.42;;;;;;;19.94;51.48;98700.91;2169522;82;21016;-72
2021/08/28 10:04:26;;;;;;;4.37;1.87;;;;;;;19.57;52.33;98703.27;2169503;82;21024;-74
2021/08/28 10:07:27;;;;;;;6.05;1.70;;;;;;;19.26;52.88;98706.82;2169501;82;20969;-69
2021/08/28 10:10:30;;;;;;;4.15;1.90;;;;;;;19.48;54.18;98702.84;2169476;82;21023;-69
2021/08/28 10:13:32;;;;;;;3.62;1.70;;;;;;;20.05;54.11;98695.30;2169287;82;21009;-69
2021/08/28 10:16:34;;;;;;;4.50;1.60;;;;;;;20.59;51.02;98686.24;2169442;82;21009;-73
2021/08/28 10:19:35;;;;;;;3.72;1.70;;;;;;;20.97;52.12;98695.20;2169507;81;20969;-73
2021/08/28 10:22:37;;;;;;;2.02;1.40;;;;;;;20.16;49.11;98702.19;2159550;82;21013;-74
2021/08/28 10:25:38;;;;;;;4.80;1.72;;;;;;;19.95;52.69;98699.07;2149330;82;21065;-70
2021/08/28 10:28:40;;;;;;;7.08;2.17;;;;;;;19.89;52.84;98696.53;2149263;82;21611;-73
2021/08/28 10:31:42;;;;;;;5.03;2.20;;;;;;;20.41;51.27;98699.16;2149350;82;20942;-69
2021/08/28 10:34:43;;;;;;;3.40;1.70;;;;;;;20.41;51.01;98699.64;2149261;82;21547;-69
2021/08/28 10:37:45;;;;;;;3.45;1.35;;;;;;;20.21;49.67;98699.91;2149327;82;21057;-73
2021/08/28 10:40:46;;;;;;;3.42;1.30;;;;;;;20.52;49.83;98703.36;2149348;82;21556;-69
2021/08/28 10:43:48;;;;;;;4.28;1.77;;;;;;;20.79;49.76;98696.16;2149306;82;21057;-74
2021/08/28 10:46:49;;;;;;;3.42;1.57;;;;;;;20.79;50.66;98696.16;2149332;82;21533;-74
2021/08/28 10:49:51;;;;;;;5.67;1.95;;;;;;;20.31;48.57;98699.76;2149450;83;20978;-73
2021/08/28 10:52:52;;;;;;;2.62;1.20;;;;;;;19.83;51.98;98701.16;2149283;82;21033;-71
2021/08/28 10:55:54;;;;;;;5.80;1.55;;;;;;;20.59;50.65;98690.23;2149438;82;21069;-74
2021/08/28 10:58:55;;;;;;;5.05;1.90;;;;;;;21.29;49.78;98691.25;2149319;82;21005;-69
2021/08/28 11:01:57;;;;;;;3.92;1.62;;;;;;;21.86;50.61;98694.09;2149495;82;21016;-71
2021/08/28 11:04:59;;;;;;;;;;;;;;;22.72;50.73;98684.47;2151957;82;20946;-73
2021/08/28 11:08:00;;;;;;;5.00;2.13;;;;;;;23.59;48.49;98677.20;2149756;82;20108;-73
2021/08/28 11:11:01;;;;;;;3.60;1.37;;;;;;;24.03;43.86;98682.69;2149519;82;20942;-68
2021/08/28 11:14:03;;;;;;;3.58;1.70;;;;;;;23.95;45.59;98682.76;2149089;83;21062;-71
2021/08/28 11:17:05;;;;;;;3.10;1.50;;;;;;;24.42;43.73;98683.91;2149144;83;21048;-70
2021/08/28 11:20:06;;;;;;;3.35;1.72;;;;;;;24.56;45.37;98687.08;2149639;82;21009;-67
2021/08/28 11:23:08;;;;;;;4.03;1.62;;;;;;;24.35;45.37;98686.00;2150713;82;21072;-68
2021/08/28 11:26:09;;;;;;;3.83;1.50;;;;;;;23.90;45.41;98690.50;2152044;83;21493;-71
2021/08/28 11:29:11;;;;;;;3.52;1.40;;;;;;;23.46;45.42;98688.03;2152055;83;21097;-72
2021/08/28 11:32:13;;;;;;;2.98;1.60;;;;;;;23.02;45.10;98696.67;2151715;82;21028;-67
2021/08/28 11:35:14;;;;;;;5.90;1.65;;;;;;;22.57;46.56;98699.58;2152234;83;21036;-67
2021/08/28 11:38:23;;;;;;;3.92;1.42;;;;;;;22.43;45.84;98697.97;2151993;83;21114;-67
2021/08/28 11:41:19;;;;;;;4.30;1.72;;;;;;;21.95;47.05;98700.59;2131524;83;20962;-67
2021/08/28 11:44:21;;;;;;;;;;;;;;;21.76;46.68;98707.09;2154699;83;20950;-67
2021/08/28 11:47:22;;;;;;;4.67;1.73;;;;;;;21.66;45.88;98710.96;2152202;82;20390;-67
2021/08/28 11:50:24;;;;;;;4.40;1.70;;;;;;;21.18;47.78;98714.75;2151904;83;21097;-72
2021/08/28 11:53:26;;;;;;;5.47;2.20;;;;;;;21.11;49.70;98718.05;2151930;83;21008;-72
2021/08/28 11:56:27;;;;;;;4.47;1.50;;;;;;;20.94;47.42;98719.02;2151913;83;20989;-67
2021/08/28 11:59:28;;;;;;;5.00;1.77;;;;;;;20.69;47.35;98725.61;2152004;83;21040;-65
2021/08/28 12:02:30;;;;;;;5.40;1.75;;;;;;;20.71;48.60;98719.61;2152099;83;21029;-67
2021/08/28 12:05:31;;;;;;;6.53;1.77;;;;;;;21.03;49.71;98718.53;2152074;82;21021;-72
2021/08/28 12:08:33;;;;;;;3.52;1.50;;;;;;;20.92;49.04;98725.84;2151981;82;20972;-68
2021/08/28 12:11:34;;;;;;;5.10;1.85;;;;;;;20.72;49.01;98723.95;2151967;83;20988;-67
2021/08/28 12:14:36;;;;;;;3.20;1.57;;;;;;;20.81;50.43;98725.31;2151865;83;21504;-72
2021/08/28 12:17:38;;;;;;;5.35;1.75;;;;;;;21.03;50.00;98720.72;2152082;83;21056;-67
2021/08/28 12:20:39;;;;;;;5.97;1.67;;;;;;;21.18;49.50;98734.75;2152000;83;20989;-67
2021/08/28 12:23:41;;;;;;;2.87;1.70;;;;;;;21.01;49.24;98725.88;2151909;82;21083;-72
2021/08/28 12:26:42;;;;;;;6.15;1.90;;;;;;;21.04;47.84;98725.55;2151996;83;20981;-69
2021/08/28 12:29:44;;;;;;;5.00;1.80;;;;;;;21.04;49.59;98720.20;2151958;83;21479;-71
2021/08/28 12:32:46;;;;;;;5.85;2.65;;;;;;;21.14;48.06;98713.41;2151493;82;21039;-72
2021/08/28 12:35:47;;;;;;;5.90;1.72;;;;;;;21.24;49.30;98717.56;2152113;83;20989;-72
2021/08/28 12:38:49;;;;;;;3.27;1.72;;;;;;;21.26;49.18;98718.26;2151941;83;21033;-72
2021/08/28 12:41:50;;;;;;;8.43;2.47;;;;;;;21.37;48.38;98706.92;2152016;82;21440;-69
2021/08/28 12:44:52;;;;;;;6.97;1.95;;;;;;;21.40;49.06;98708.74;2151793;83;21024;-67
2021/08/28 12:47:53;;;;;;;5.30;1.52;;;;;;;21.53;49.05;98710.12;2151944;83;21578;-71
2021/08/28 12:50:54;;;;;;;4.83;2.00;;;;;;;21.34;48.10;98710.75;2152200;83;20993;-72
2021/08/28 12:53:56;;;;;;;5.85;1.90;;;;;;;21.23;47.78;98713.73;2151881;83;21008;-72
2021/08/28 12:56:57;;;;;;;5.53;1.95;;;;;;;20.84;46.95;98711.66;2152110;82;21053;-72
2021/08/28 12:59:59;;;;;;;7.15;2.08;;;;;;;20.84;49.25;98708.48;2151929;83;21026;-72
2021/08/28 13:03:00;;;;;;;3.33;1.70;;;;;;;21.13;49.57;98713.06;2151930;83;21464;-71
2021/08/28 13:06:02;;;;;;;8.03;1.92;;;;;;;21.38;48.43;98707.27;2151970;83;20977;-71
2021/08/28 13:09:03;;;;;;;8.63;2.72;;;;;;;21.53;48.39;98715.47;2151942;83;21545;-70
2021/08/28 13:12:05;;;;;;;6.30;1.90;;;;;;;21.61;47.65;98716.30;2151830;83;21068;-67
2021/08/28 13:15:06;;;;;;;5.50;1.92;;;;;;;21.31;47.85;98723.09;2151859;83;21035;-72
2021/08/28 13:18:08;;;;;;;6.92;2.00;;;;;;;21.03;47.63;98714.05;2152065;83;21024;-67
2021/08/28 13:21:09;;;;;;;7.30;2.40;;;;;;;20.91;47.53;98715.34;2151966;83;20984;-72
2021/08/28 13:24:11;;;;;;;8.48;2.20;;;;;;;21.08;48.00;98721.05;2149822;82;21021;-68
2021/08/28 13:27:12;;;;;;;4.28;2.00;;;;;;;21.51;49.27;98711.63;2149398;82;20989;-67
2021/08/28 13:30:14;;;;;;;8.00;2.40;;;;;;;21.89;46.88;98716.44;2149378;82;21006;-71
2021/08/28 13:33:16;;;;;;;5.42;1.90;;;;;;;21.87;46.24;98710.45;2148806;83;21480;-72
2021/08/28 13:36:17;;;;;;;5.85;2.25;;;;;;;21.67;46.84;98712.13;2149497;82;20982;-72
2021/08/28 13:39:19;;;;;;;8.10;2.25;;;;;;;21.45;47.67;98708.27;2149281;82;21076;-73
2021/08/28 13:42:20;;;;;;;6.70;2.45;;;;;;;21.51;48.06;98704.11;2149473;82;20981;-72
2021/08/28 13:45:22;;;;;;;8.50;2.62;;;;;;;21.61;48.63;98700.28;2149376;82;20985;-72
2021/08/28 13:48:23;;;;;;;8.93;2.55;;;;;;;21.98;46.55;98701.58;2149373;83;21001;-72
2021/08/28 13:51:25;;;;;;;6.47;2.20;;;;;;;22.34;48.11;98695.02;2149354;82;21473;-70
2021/08/28 13:54:26;;;;;;;9.25;2.70;;;;;;;22.75;47.40;98694.81;2149321;82;21004;-73
2021/08/28 13:57:28;;;;;;;9.15;2.40;;;;;;;23.07;47.52;98690.79;2149370;82;21465;-73
2021/08/28 14:00:29;;;;;;;6.75;2.12;;;;;;;23.50;46.25;98688.48;2149480;82;21005;-73
2021/08/28 14:03:31;;;;;;;7.37;2.42;;;;;;;23.47;45.35;98684.33;2149032;83;21046;-73
2021/08/28 14:06:33;;;;;;;5.53;2.08;;;;;;;23.27;46.55;98687.99;2149482;82;21028;-72
2021/08/28 14:09:34;;;;;;;6.42;2.17;;;;;;;23.44;46.09;98682.01;2149622;82;21021;-72
2021/08/28 14:12:35;;;;;;;7.12;2.10;;;;;;;23.57;46.51;98684.08;2149513;82;21496;-72